createdAt,value
2022-10-13T00:00:15.553Z,100307.46
2022-10-13T00:01:17.035Z,100307.06
2022-10-13T00:02:15.060Z,100306.66
2022-10-13T00:03:15.329Z,100308.14
2022-10-13T00:04:15.097Z,100305.25
2022-10-13T00:05:15.358Z,100308.61
2022-10-13T00:06:16.368Z,100306.67
2022-10-13T00:07:15.242Z,100311.62
2022-10-13T00:08:16.905Z,100307.83
2022-10-13T00:09:15.192Z,100306.75
2022-10-13T00:10:15.227Z,100311.61
2022-10-13T00:11:16.974Z,100313.62
2022-10-13T00:12:15.575Z,100314.47
2022-10-13T00:13:15.270Z,100309.69
2022-10-13T00:14:15.244Z,100318.81
2022-10-13T00:15:15.495Z,100315.59
2022-10-13T00:16:17.218Z,100315
2022-10-13T00:17:15.296Z,100312.57
2022-10-13T00:18:16.382Z,100310.73
2022-10-13T00:19:15.352Z,100310.03
2022-10-13T00:20:15.332Z,100309.34
2022-10-13T00:21:16.978Z,100315.03
2022-10-13T00:22:15.725Z,100313.9
2022-10-13T00:23:16.045Z,100316.12
2022-10-13T00:24:15.409Z,100314.77
2022-10-13T00:25:15.440Z,100313.03
2022-10-13T00:26:16.190Z,100313.7
2022-10-13T00:27:15.458Z,100311
2022-10-13T00:28:17.339Z,100310.64
2022-10-13T00:29:15.477Z,100308.32
2022-10-13T00:30:15.505Z,100305.88
2022-10-13T00:32:18.501Z,100311.19
2022-10-13T00:33:17.513Z,100312.95
2022-10-13T00:34:17.534Z,100310.05
2022-10-13T00:35:17.544Z,100311.02
2022-10-13T00:36:17.553Z,100312.39
2022-10-13T00:37:17.606Z,100305.53
2022-10-13T00:38:19.275Z,100314.16
2022-10-13T00:39:17.599Z,100308.52
2022-10-13T00:40:17.642Z,100307.91
2022-10-13T00:41:17.644Z,100310.67
2022-10-13T00:42:17.964Z,100311.73
2022-10-13T00:43:18.639Z,100312.41
2022-10-13T00:45:26.659Z,100307.22
2022-10-13T00:46:24.647Z,100307.15
2022-10-13T00:47:24.312Z,100311
2022-10-13T00:48:29.226Z,100312.11
2022-10-13T00:49:26.066Z,100312.02
2022-10-13T00:50:29.709Z,100310.83
2022-10-13T00:51:28.996Z,100308.81
2022-10-13T00:52:26.797Z,100309.91
2022-10-13T00:53:30.367Z,100314.81
2022-10-13T00:54:27.232Z,100305.67
2022-10-13T00:55:29.382Z,100309.66
2022-10-13T00:56:27.813Z,100313.17
2022-10-13T00:57:27.343Z,100306.55
2022-10-13T00:58:28.582Z,100314
2022-10-13T00:59:27.677Z,100312.2
2022-10-13T01:00:27.536Z,100306.73
2022-10-13T01:01:27.630Z,100313.49
2022-10-13T01:02:30.358Z,100312.41
2022-10-13T01:03:27.388Z,100311.38
2022-10-13T01:04:29.365Z,100311.73
2022-10-13T01:05:27.343Z,100312.48
2022-10-13T01:06:27.546Z,100309.31
2022-10-13T01:07:27.638Z,100301.81
2022-10-13T01:08:28.761Z,100305.47
2022-10-13T01:09:27.356Z,100307.92
2022-10-13T01:13:41.896Z,100310.55
2022-10-13T01:30:19.115Z,100308.39
2022-10-13T01:34:30.268Z,100314.92
2022-10-13T01:39:40.248Z,100313.52
2022-10-13T01:41:44.183Z,100316.36
2022-10-13T01:43:47.750Z,100315.55
2022-10-13T01:44:49.030Z,100312.11
2022-10-13T01:45:51.555Z,100311.37
2022-10-13T01:46:50.553Z,100310.81
2022-10-13T01:47:49.006Z,100309.92
2022-10-13T01:48:50.232Z,100307.38
2022-10-13T01:49:50.390Z,100307.37
2022-10-13T01:50:48.740Z,100304.14
2022-10-13T01:51:49.238Z,100308.76
2022-10-13T01:52:49.550Z,100308.48
2022-10-13T01:53:48.959Z,100310.36
2022-10-13T01:54:50.312Z,100310.44
2022-10-13T01:55:52.794Z,100311.56
2022-10-13T01:56:52.941Z,100311.38
2022-10-13T01:57:49.631Z,100310.48
2022-10-13T01:58:50.747Z,100309.2
2022-10-13T01:59:49.704Z,100309.8
2022-10-13T02:01:00.598Z,100307.81
2022-10-13T02:07:14.508Z,100314.42
2022-10-13T02:08:17.022Z,100307.72
2022-10-13T02:11:21.822Z,100305.33
2022-10-13T02:13:24.807Z,100310.09
2022-10-13T02:14:25.393Z,100306.34
2022-10-13T02:15:27.774Z,100310.27
2022-10-13T02:16:25.119Z,100311.89
2022-10-13T02:17:24.610Z,100311.66
2022-10-13T02:18:27.580Z,100313.98
2022-10-13T02:19:24.631Z,100315.03
2022-10-13T02:20:24.038Z,100317
2022-10-13T02:21:24.218Z,100313.34
2022-10-13T02:22:26.931Z,100310.55
2022-10-13T02:23:24.266Z,100309.05
2022-10-13T02:24:24.314Z,100314.13
2022-10-13T02:25:24.771Z,100313
2022-10-13T02:26:24.669Z,100315
2022-10-13T02:27:24.286Z,100313.69
2022-10-13T02:28:24.811Z,100312.41
2022-10-13T02:29:24.736Z,100309.61
2022-10-13T02:30:25.732Z,100312.48
2022-10-13T02:31:24.424Z,100311.38
2022-10-13T02:32:24.427Z,100316.31
2022-10-13T02:33:24.234Z,100318.34
2022-10-13T02:34:24.263Z,100320.61
2022-10-13T02:35:24.302Z,100317.31
2022-10-13T02:36:24.273Z,100318.96
2022-10-13T02:37:24.297Z,100317.95
2022-10-13T02:38:24.302Z,100315.91
2022-10-13T02:39:24.338Z,100319.52
2022-10-13T02:40:24.854Z,100321.17
2022-10-13T02:41:24.360Z,100316.16
2022-10-13T02:42:24.579Z,100317.54
2022-10-13T02:43:24.415Z,100320.36
2022-10-13T02:44:24.585Z,100321.25
2022-10-13T02:45:24.443Z,100324.39
2022-10-13T02:46:24.632Z,100323.23
2022-10-13T02:47:24.474Z,100321.62
2022-10-13T02:48:24.485Z,100319.94
2022-10-13T02:49:24.484Z,100317.22
2022-10-13T02:50:24.516Z,100317.41
2022-10-13T02:51:24.731Z,100316.77
2022-10-13T02:52:24.760Z,100317.62
2022-10-13T02:53:24.572Z,100321.56
2022-10-13T02:54:24.559Z,100319.38
2022-10-13T02:55:24.779Z,100320.02
2022-10-13T02:56:24.658Z,100322.44
2022-10-13T02:57:24.616Z,100321.55
2022-10-13T02:58:24.647Z,100323.86
2022-10-13T02:59:24.638Z,100321.91
2022-10-13T03:00:24.902Z,100320.77
2022-10-13T03:01:24.738Z,100323.75
2022-10-13T03:02:25.943Z,100321.23
2022-10-13T03:03:24.703Z,100318.59
2022-10-13T03:04:24.927Z,100322.32
2022-10-13T03:05:24.754Z,100315.27
2022-10-13T03:06:24.817Z,100315.77
2022-10-13T03:07:24.785Z,100317.87
2022-10-13T03:08:24.997Z,100319.95
2022-10-13T03:09:24.848Z,100319.37
2022-10-13T03:10:24.828Z,100321.86
2022-10-13T03:11:25.252Z,100315.1
2022-10-13T03:12:24.919Z,100311.61
2022-10-13T03:13:25.103Z,100310
2022-10-13T03:14:24.889Z,100309.52
2022-10-13T03:15:24.931Z,100308.98
2022-10-13T03:16:25.322Z,100310.48
2022-10-13T03:17:25.118Z,100313.45
2022-10-13T03:18:25.132Z,100307.44
2022-10-13T03:19:25.208Z,100308.14
2022-10-13T03:20:24.978Z,100309.23
2022-10-13T03:21:25.165Z,100307.72
2022-10-13T03:22:25.211Z,100310.86
2022-10-13T03:23:25.266Z,100307.73
2022-10-13T03:24:25.025Z,100312.58
2022-10-13T03:25:25.084Z,100313.45
2022-10-13T03:26:25.067Z,100313.61
2022-10-13T03:27:25.112Z,100311.32
2022-10-13T03:28:25.298Z,100315.72
2022-10-13T03:29:25.191Z,100310.77
2022-10-13T03:30:25.197Z,100315.61
2022-10-13T03:31:25.121Z,100309.48
2022-10-13T03:32:25.192Z,100312.08
2022-10-13T03:33:25.172Z,100306.12
2022-10-13T03:34:25.207Z,100315
2022-10-13T03:35:25.237Z,100312.43
2022-10-13T03:36:25.214Z,100309.94
2022-10-13T03:37:25.294Z,100311.89
2022-10-13T03:38:25.247Z,100316.92
2022-10-13T03:39:25.310Z,100316.65
2022-10-13T03:40:25.628Z,100316.56
2022-10-13T03:41:25.300Z,100314.71
2022-10-13T03:42:25.340Z,100321.12
2022-10-13T03:43:25.325Z,100320.38
2022-10-13T03:44:25.545Z,100316.77
2022-10-13T03:45:25.382Z,100319.48
2022-10-13T03:46:27.424Z,100310.75
2022-10-13T03:47:25.383Z,100314.14
2022-10-13T03:48:25.536Z,100312.58
2022-10-13T03:49:25.426Z,100314.19
2022-10-13T03:50:25.709Z,100315.55
2022-10-13T03:51:25.478Z,100316.64
2022-10-13T03:52:25.520Z,100316.72
2022-10-13T03:53:26.093Z,100314.2
2022-10-13T03:54:25.680Z,100317.42
2022-10-13T03:55:25.554Z,100319.34
2022-10-13T03:56:26.249Z,100317.22
2022-10-13T03:57:25.566Z,100320
2022-10-13T03:58:25.568Z,100317.66
2022-10-13T03:59:25.881Z,100318.69
2022-10-13T04:00:25.595Z,100316.32
2022-10-13T04:01:27.078Z,100317.66
2022-10-13T04:02:25.858Z,100317.47
2022-10-13T04:03:25.847Z,100311.08
2022-10-13T04:04:25.707Z,100312.58
2022-10-13T04:05:25.692Z,100315.22
2022-10-13T04:06:26.081Z,100315.39
2022-10-13T04:07:25.697Z,100312.06
2022-10-13T04:08:25.759Z,100309.88
2022-10-13T04:09:26.132Z,100312.98
2022-10-13T04:10:26.005Z,100317.86
2022-10-13T04:11:25.800Z,100319.17
2022-10-13T04:12:26.249Z,100319.11
2022-10-13T04:13:25.824Z,100319.04
2022-10-13T04:14:25.867Z,100316.75
2022-10-13T04:15:25.846Z,100319.59
2022-10-13T04:16:27.677Z,100320.75
2022-10-13T04:17:25.853Z,100319.02
2022-10-13T04:18:25.901Z,100315.34
2022-10-13T04:19:26.285Z,100316.16
2022-10-13T04:20:25.923Z,100317.59
2022-10-13T04:21:26.374Z,100316.88
2022-10-13T04:22:25.950Z,100316.22
2022-10-13T04:23:26.010Z,100312.78
2022-10-13T04:24:26.041Z,100311.9
2022-10-13T04:25:25.996Z,100313.81
2022-10-13T04:26:27.223Z,100312.5
2022-10-13T04:27:26.026Z,100311.83
2022-10-13T04:28:26.088Z,100308.84
2022-10-13T04:29:26.052Z,100307.73
2022-10-13T04:30:26.191Z,100306.39
2022-10-13T04:31:27.987Z,100309.41
2022-10-13T04:32:26.142Z,100309.59
2022-10-13T04:33:26.126Z,100305.91
2022-10-13T04:34:26.143Z,100306.8
2022-10-13T04:35:26.195Z,100307.59
2022-10-13T04:36:26.488Z,100305.02
2022-10-13T04:37:26.188Z,100304.35
2022-10-13T04:38:26.212Z,100305.75
2022-10-13T04:39:26.223Z,100304.58
2022-10-13T04:40:26.649Z,100301.16
2022-10-13T04:41:26.322Z,100304.94
2022-10-13T04:42:26.272Z,100307.67
2022-10-13T04:43:26.283Z,100308.59
2022-10-13T04:44:26.313Z,100308.75
2022-10-13T04:45:26.766Z,100309.27
2022-10-13T04:46:26.792Z,100309.96
2022-10-13T04:47:26.341Z,100312.71
2022-10-13T04:48:26.392Z,100313.12
2022-10-13T04:49:26.875Z,100313.37
2022-10-13T04:50:26.699Z,100316.2
2022-10-13T04:51:26.432Z,100310.55
2022-10-13T04:52:26.477Z,100314.32
2022-10-13T04:53:26.906Z,100314.35
2022-10-13T04:54:26.472Z,100318.39
2022-10-13T04:55:27.079Z,100316.07
2022-10-13T04:56:26.962Z,100322.02
2022-10-13T04:57:26.517Z,100319.66
2022-10-13T04:58:26.751Z,100319.61
2022-10-13T04:59:26.809Z,100317.81
2022-10-13T05:00:26.686Z,100312.23
2022-10-13T05:01:26.654Z,100318.77
2022-10-13T05:02:26.597Z,100321.55
2022-10-13T05:03:26.600Z,100317.23
2022-10-13T05:04:26.645Z,100317.25
2022-10-13T05:05:26.678Z,100316.38
2022-10-13T05:06:28.153Z,100316.45
2022-10-13T05:07:26.691Z,100313.67
2022-10-13T05:08:26.677Z,100319.3
2022-10-13T05:09:26.788Z,100314.09
2022-10-13T05:10:29.233Z,100314.62
2022-10-13T05:11:29.353Z,100314.95
2022-10-13T05:12:28.889Z,100315.79
2022-10-13T05:13:29.393Z,100319.19
2022-10-13T05:14:29.109Z,100322.97
2022-10-13T05:15:28.945Z,100322.48
2022-10-13T05:16:28.975Z,100325.05
2022-10-13T05:17:34.151Z,100319.48
2022-10-13T05:18:31.478Z,100321.16
2022-10-13T05:19:31.719Z,100321.12
2022-10-13T05:20:31.510Z,100326.09
2022-10-13T05:21:31.506Z,100321.58
2022-10-13T05:22:31.612Z,100324.3
2022-10-13T05:23:32.133Z,100323.44
2022-10-13T05:24:31.931Z,100325.02
2022-10-13T05:25:33.947Z,100323.12
2022-10-13T05:26:34.853Z,100326.05
2022-10-13T05:27:31.607Z,100329.01
2022-10-13T05:28:31.930Z,100324.86
2022-10-13T05:29:31.666Z,100327.41
2022-10-13T05:30:32.273Z,100326.74
2022-10-13T05:31:32.669Z,100327.77
2022-10-13T05:32:31.678Z,100324.47
2022-10-13T05:33:31.900Z,100330.61
2022-10-13T05:34:32.095Z,100327.91
2022-10-13T05:35:31.741Z,100332.62
2022-10-13T05:36:33.345Z,100330.2
2022-10-13T05:37:31.780Z,100336.09
2022-10-13T05:38:31.997Z,100329.96
2022-10-13T05:39:31.804Z,100331.75
2022-10-13T05:40:31.877Z,100334.84
2022-10-13T05:41:32.080Z,100334.44
2022-10-13T05:42:31.852Z,100335.7
2022-10-13T05:43:32.708Z,100338.06
2022-10-13T05:44:31.999Z,100335.83
2022-10-13T05:45:32.890Z,100338.45
2022-10-13T05:46:32.070Z,100338.11
2022-10-13T05:47:31.959Z,100340.83
2022-10-13T05:48:31.964Z,100339.93
2022-10-13T05:49:32.272Z,100342.16
2022-10-13T05:50:31.972Z,100337.92
2022-10-13T05:51:33.812Z,100341.42
2022-10-13T05:52:33.086Z,100336.62
2022-10-13T05:53:34.706Z,100336.78
2022-10-13T05:55:34.852Z,100334.66
2022-10-13T05:56:38.092Z,100337.81
2022-10-13T05:57:37.206Z,100333.08
2022-10-13T05:58:37.558Z,100334.1
2022-10-13T05:59:37.283Z,100331.05
2022-10-13T06:00:35.478Z,100340.36
2022-10-13T06:01:37.039Z,100339.19
2022-10-13T06:02:38.573Z,100335.75
2022-10-13T06:03:35.584Z,100331.33
2022-10-13T06:04:39.705Z,100333.8
2022-10-13T06:05:35.952Z,100334.8
2022-10-13T06:06:36.104Z,100332.8
2022-10-13T06:07:36.576Z,100330.12
2022-10-13T06:08:36.881Z,100329.53
2022-10-13T06:09:37.552Z,100329
2022-10-13T06:10:39.536Z,100330.75
2022-10-13T06:11:36.016Z,100329.25
2022-10-13T06:12:36.034Z,100329.7
2022-10-13T06:13:36.036Z,100330.09
2022-10-13T06:14:36.914Z,100329.92
2022-10-13T06:15:36.085Z,100326.46
2022-10-13T06:16:36.337Z,100328.34
2022-10-13T06:17:36.907Z,100325.28
2022-10-13T06:18:36.148Z,100322.53
2022-10-13T06:19:36.429Z,100325.75
2022-10-13T06:20:36.411Z,100325.16
2022-10-13T06:21:36.206Z,100323.52
2022-10-13T06:22:36.748Z,100324.46
2022-10-13T06:23:36.213Z,100323.47
2022-10-13T06:24:36.241Z,100324.07
2022-10-13T06:25:36.241Z,100331.81
2022-10-13T06:26:36.266Z,100328.2
2022-10-13T06:27:36.526Z,100326.36
2022-10-13T06:28:36.624Z,100330.3
2022-10-13T06:29:36.319Z,100330.51
2022-10-13T06:30:37.702Z,100328.06
2022-10-13T06:31:36.368Z,100333
2022-10-13T06:32:36.377Z,100328.37
2022-10-13T06:33:36.399Z,100329.17
2022-10-13T06:34:36.581Z,100327.83
2022-10-13T06:35:36.401Z,100329.95
2022-10-13T06:36:36.411Z,100333.27
2022-10-13T06:37:36.458Z,100332.85
2022-10-13T06:38:36.700Z,100336.85
2022-10-13T06:39:36.525Z,100337.58
2022-10-13T06:40:36.502Z,100340.05
2022-10-13T06:41:36.547Z,100340.95
2022-10-13T06:42:36.508Z,100343.94
2022-10-13T06:43:40.335Z,100342.3
2022-10-13T06:44:37.561Z,100346.33
2022-10-13T06:45:36.968Z,100346.78
2022-10-13T06:46:36.986Z,100346.2
2022-10-13T06:47:37.028Z,100351.95
2022-10-13T06:48:37.036Z,100352.36
2022-10-13T06:49:37.087Z,100352.5
2022-10-13T06:50:42.059Z,100353.78
2022-10-13T06:51:39.269Z,100353.42
2022-10-13T06:52:39.497Z,100353.16
2022-10-13T06:53:39.252Z,100354.12
2022-10-13T06:54:39.252Z,100352.75
2022-10-13T06:55:39.263Z,100353.02
2022-10-13T06:56:39.312Z,100351.96
2022-10-13T06:57:39.324Z,100353.3
2022-10-13T06:58:39.308Z,100353.39
2022-10-13T06:59:39.281Z,100356.67
2022-10-13T07:00:40.444Z,100357.7
2022-10-13T07:01:41.717Z,100356.74
2022-10-13T07:02:39.352Z,100355
2022-10-13T07:03:39.370Z,100355.4
2022-10-13T07:04:39.431Z,100356.19
2022-10-13T07:05:39.400Z,100354.3
2022-10-13T07:06:39.657Z,100355.8
2022-10-13T07:07:39.428Z,100349.15
2022-10-13T07:08:39.461Z,100352.7
2022-10-13T07:09:39.463Z,100352.02
2022-10-13T07:10:39.811Z,100349.2
2022-10-13T07:11:39.760Z,100350.88
2022-10-13T07:12:39.488Z,100354.81
2022-10-13T07:13:43.590Z,100349.46
2022-10-13T07:14:43.849Z,100347.88
2022-10-13T07:15:42.718Z,100351.73
2022-10-13T07:16:43.047Z,100349.62
2022-10-13T07:17:42.790Z,100350.12
2022-10-13T07:18:42.793Z,100353.7
2022-10-13T07:19:42.897Z,100350.11
2022-10-13T07:20:42.802Z,100349.87
2022-10-13T07:21:43.045Z,100349.13
2022-10-13T07:22:43.158Z,100350.64
2022-10-13T07:23:42.859Z,100349.29
2022-10-13T07:24:43.065Z,100353.76
2022-10-13T07:25:42.888Z,100353.55
2022-10-13T07:26:42.950Z,100352.06
2022-10-13T07:27:42.928Z,100355.25
2022-10-13T07:28:43.886Z,100350.27
2022-10-13T07:29:42.936Z,100351.12
2022-10-13T07:30:42.981Z,100352.85
2022-10-13T07:31:43.947Z,100352.16
2022-10-13T07:32:42.982Z,100355.08
2022-10-13T07:33:44.078Z,100352.94
2022-10-13T07:34:43.021Z,100354.92
2022-10-13T07:35:43.426Z,100351.05
2022-10-13T07:36:43.336Z,100352.14
2022-10-13T07:37:43.399Z,100353.11
2022-10-13T07:38:43.127Z,100356.45
2022-10-13T07:39:43.122Z,100359.65
2022-10-13T07:40:43.079Z,100354.48
2022-10-13T07:41:46.359Z,100357.02
2022-10-13T07:42:44.976Z,100358.72
2022-10-13T07:43:45.018Z,100360.45
2022-10-13T07:44:44.996Z,100358.11
2022-10-13T07:45:44.978Z,100349.42
2022-10-13T07:46:44.998Z,100353.84
2022-10-13T07:47:45.245Z,100354.43
2022-10-13T07:48:45.028Z,100355.42
2022-10-13T07:49:45.021Z,100346.57
2022-10-13T07:50:45.095Z,100349.77
2022-10-13T07:51:45.061Z,100349.2
2022-10-13T07:52:45.105Z,100354.55
2022-10-13T07:53:45.072Z,100353.39
2022-10-13T07:54:45.112Z,100353.16
2022-10-13T07:55:45.102Z,100356.59
2022-10-13T07:56:45.176Z,100357.27
2022-10-13T07:57:45.433Z,100352.55
2022-10-13T07:58:46.173Z,100352.56
2022-10-13T07:59:45.159Z,100350.86
2022-10-13T08:00:45.202Z,100346.06
2022-10-13T08:01:45.283Z,100351.12
2022-10-13T08:02:48.897Z,100352.79
2022-10-13T08:03:49.090Z,100353.17
2022-10-13T08:04:47.001Z,100351.67
2022-10-13T08:05:46.949Z,100351.8
2022-10-13T08:06:46.941Z,100352.02
2022-10-13T08:07:46.934Z,100350.12
2022-10-13T08:08:47.009Z,100352.7
2022-10-13T08:09:47.008Z,100353.62
2022-10-13T08:10:47.089Z,100353.67
2022-10-13T08:11:46.986Z,100354.27
2022-10-13T08:12:47.361Z,100355.5
2022-10-13T08:13:50.640Z,100351.09
2022-10-13T08:14:49.960Z,100358.15
2022-10-13T08:15:47.130Z,100354.41
2022-10-13T08:16:49.922Z,100356.55
2022-10-13T08:17:49.436Z,100356.12
2022-10-13T08:18:49.382Z,100354.81
2022-10-13T08:19:50.607Z,100352.73
2022-10-13T08:20:49.387Z,100358.3
2022-10-13T08:21:58.666Z,100353.95
2022-10-13T08:22:50.647Z,100351.58
2022-10-13T08:23:50.656Z,100355.09
2022-10-13T08:24:50.723Z,100352.91
2022-10-13T08:25:50.865Z,100353.17
2022-10-13T08:26:51.119Z,100353.92
2022-10-13T08:27:52.025Z,100355.48
2022-10-13T08:29:09.626Z,100352.74
2022-10-13T08:29:52.407Z,100352.66
2022-10-13T08:30:52.659Z,100351.41
2022-10-13T08:31:53.442Z,100355.81
2022-10-13T08:32:52.307Z,100356.39
2022-10-13T08:33:52.326Z,100358
2022-10-13T08:34:52.439Z,100360.7
2022-10-13T08:35:52.592Z,100362.41
2022-10-13T08:36:53.677Z,100354.14
2022-10-13T08:37:52.427Z,100354.28
2022-10-13T08:38:52.401Z,100351.02
2022-10-13T08:39:55.129Z,100354
2022-10-13T08:40:52.606Z,100349.51
2022-10-13T08:41:52.875Z,100344.67
2022-10-13T08:42:55.559Z,100347.3
2022-10-13T08:45:28.389Z,100350.93
2022-10-13T08:46:01.220Z,100354.06
2022-10-13T08:49:08.383Z,100350.58
2022-10-13T08:50:13.721Z,100350.49
2022-10-13T08:51:12.365Z,100350.86
2022-10-13T08:52:15.416Z,100347.6
2022-10-13T08:54:16.557Z,100345.41
2022-10-13T08:57:23.318Z,100343.67
2022-10-13T08:58:28.172Z,100340.9
2022-10-13T08:59:24.569Z,100342.56
2022-10-13T09:00:24.397Z,100345.84
2022-10-13T09:01:27.938Z,100342.75
2022-10-13T09:02:31.182Z,100344.53
2022-10-13T09:03:29.096Z,100339.5
2022-10-13T09:04:29.647Z,100339.34
2022-10-13T09:05:36.305Z,100338.02
2022-10-13T09:06:31.958Z,100340.19
2022-10-13T09:07:29.160Z,100339.99
2022-10-13T09:08:31.801Z,100340.28
2022-10-13T09:09:28.240Z,100343.01
2022-10-13T09:10:28.181Z,100341.12
2022-10-13T09:11:33.702Z,100341.98
2022-10-13T09:12:29.890Z,100339.16
2022-10-13T09:13:29.941Z,100342.28
2022-10-13T09:14:31.991Z,100341.57
2022-10-13T09:15:29.950Z,100336.23
2022-10-13T09:16:34.245Z,100339.97
2022-10-13T09:17:31.479Z,100335.97
2022-10-13T09:18:31.470Z,100338.66
2022-10-13T09:19:32.705Z,100342.28
2022-10-13T09:20:30.719Z,100340.19
2022-10-13T09:21:30.488Z,100340.86
2022-10-13T09:22:35.084Z,100342.41
2022-10-13T09:23:31.278Z,100343.06
2022-10-13T09:24:31.329Z,100343.24
2022-10-13T09:25:39.911Z,100337.77
2022-10-13T09:26:39.159Z,100335.33
2022-10-13T09:27:43.764Z,100338.8
2022-10-13T09:28:40.189Z,100340.55
2022-10-13T09:29:40.751Z,100338.7
2022-10-13T09:30:41.738Z,100338.93
2022-10-13T09:31:40.221Z,100337.11
2022-10-13T09:32:40.349Z,100334.84
2022-10-13T09:33:40.641Z,100333.53
2022-10-13T09:34:40.230Z,100329.42
2022-10-13T09:35:48.167Z,100337.12
2022-10-13T09:43:06.681Z,100331.14
2022-10-13T09:44:09.940Z,100327.69
2022-10-13T09:45:16.516Z,100328.4
2022-10-13T09:46:20.837Z,100331.7
2022-10-13T09:47:20.418Z,100332.38
2022-10-13T09:48:20.986Z,100333.31
2022-10-13T09:52:26.603Z,100330.72
2022-10-13T09:53:32.451Z,100335.23
2022-10-13T09:55:34.074Z,100331.76
2022-10-13T09:58:37.472Z,100329.59
2022-10-13T09:59:40.898Z,100328.95
2022-10-13T10:00:37.833Z,100326.27
2022-10-13T10:01:39.733Z,100322.34
2022-10-13T10:02:41.517Z,100325.2
2022-10-13T10:03:38.324Z,100330.21
2022-10-13T10:04:40.820Z,100325.06
2022-10-13T10:06:43.703Z,100322.73
2022-10-13T10:07:42.698Z,100317.59
2022-10-13T10:10:48.767Z,100324
2022-10-13T10:11:49.994Z,100327.11
2022-10-13T10:12:48.797Z,100319.56
2022-10-13T10:13:48.825Z,100322.45
2022-10-13T10:14:49.167Z,100323.71
2022-10-13T10:15:58.500Z,100319.19
2022-10-13T10:16:52.985Z,100316.08
2022-10-13T10:17:58.755Z,100323.16
2022-10-13T10:18:58.814Z,100320.59
2022-10-13T10:23:05.986Z,100315.09
2022-10-13T10:26:11.570Z,100314.06
2022-10-13T10:29:23.348Z,100309.61
2022-10-13T10:30:19.445Z,100309.91
2022-10-13T10:33:21.598Z,100312
2022-10-13T10:38:39.196Z,100302.96
2022-10-13T10:39:35.818Z,100308.94
2022-10-13T10:41:50.092Z,100303.27
2022-10-13T10:45:42.725Z,100301.16
2022-10-13T10:47:44.175Z,100296.19
2022-10-13T10:48:43.757Z,100293.31
2022-10-13T10:49:42.943Z,100293.8
2022-10-13T10:50:42.342Z,100296.22
2022-10-13T10:51:42.574Z,100291.98
2022-10-13T10:53:56.259Z,100297.68
2022-10-13T10:54:55.294Z,100292.25
2022-10-13T10:56:00.402Z,100294.6
2022-10-13T10:56:54.568Z,100294.53
2022-10-13T10:59:02.831Z,100287.1
2022-10-13T11:00:01.374Z,100292.1
2022-10-13T11:01:04.247Z,100292.14
2022-10-13T11:02:10.060Z,100286.77
2022-10-13T11:03:07.997Z,100287.5
2022-10-13T11:05:08.346Z,100285.45
2022-10-13T11:08:26.188Z,100284.36
2022-10-13T11:10:20.266Z,100282.38
2022-10-13T11:13:24.958Z,100281
2022-10-13T11:14:27.839Z,100275.05
2022-10-13T11:15:27.187Z,100274.61
2022-10-13T11:17:31.251Z,100277.07
2022-10-13T11:19:38.646Z,100273.7
2022-10-13T11:22:40.030Z,100274
2022-10-13T11:23:44.617Z,100276.53
2022-10-13T11:25:43.336Z,100270.83
2022-10-13T11:26:42.702Z,100271.27
2022-10-13T11:27:42.924Z,100274.48
2022-10-13T11:28:45.526Z,100272.34
2022-10-13T11:30:52.889Z,100271.93
2022-10-13T11:31:54.147Z,100273.84
2022-10-13T11:32:50.891Z,100275.34
2022-10-13T11:33:55.271Z,100275.12
2022-10-13T11:34:58.049Z,100273.91
2022-10-13T11:35:54.930Z,100277.19
2022-10-13T11:36:55.996Z,100273.56
2022-10-13T11:46:36.860Z,100258.12
2022-10-13T11:54:54.267Z,100250.33
2022-10-13T11:55:48.298Z,100252.3
2022-10-13T11:56:48.881Z,100254.27
2022-10-13T11:57:45.482Z,100249.32
2022-10-13T11:58:45.549Z,100250.61
2022-10-13T11:59:47.296Z,100255.67
2022-10-13T12:01:54.776Z,100254.36
2022-10-13T12:02:52.997Z,100252.24
2022-10-13T12:03:51.002Z,100253.95
2022-10-13T12:05:56.760Z,100255.39
2022-10-13T12:07:02.799Z,100253.34
2022-10-13T12:08:03.143Z,100257.27
2022-10-13T12:09:07.365Z,100259.47
2022-10-13T12:10:06.132Z,100253.55
2022-10-13T12:11:04.182Z,100251.45
2022-10-13T12:13:05.519Z,100254.2
2022-10-13T12:14:07.133Z,100247.84
2022-10-13T12:16:07.003Z,100243.77
2022-10-13T12:21:16.623Z,100246.75
2022-10-13T12:22:15.714Z,100251.91
2022-10-13T12:23:16.747Z,100254.07
2022-10-13T12:24:15.025Z,100246.45
2022-10-13T12:25:16.226Z,100249.48
2022-10-13T12:26:16.912Z,100250.98
2022-10-13T12:27:21.085Z,100246.55
2022-10-13T12:28:18.819Z,100245.99
2022-10-13T12:29:19.327Z,100250.29
2022-10-13T12:30:25.494Z,100247.75
2022-10-13T12:31:26.230Z,100246.01
2022-10-13T12:32:29.418Z,100241.94
2022-10-13T12:33:34.942Z,100249.22
2022-10-13T12:34:27.965Z,100245.11
2022-10-13T12:35:30.582Z,100243.08
2022-10-13T12:36:31.202Z,100243.95
2022-10-13T12:37:29.462Z,100242.88
2022-10-13T12:38:27.612Z,100244.52
2022-10-13T12:39:29.165Z,100244.08
2022-10-13T12:40:28.492Z,100243.28
2022-10-13T12:41:29.091Z,100243.78
2022-10-13T12:42:30.172Z,100241.04
2022-10-13T12:43:27.533Z,100245.28
2022-10-13T12:44:30.111Z,100243.42
2022-10-13T12:45:31.154Z,100245.78
2022-10-13T12:48:36.191Z,100245.97
2022-10-13T12:49:33.937Z,100239.86
2022-10-13T12:50:36.314Z,100239.48
2022-10-13T12:51:32.960Z,100238.23
2022-10-13T12:52:33.982Z,100236.84
2022-10-13T12:53:32.733Z,100236.08
2022-10-13T12:54:33.928Z,100239.4
2022-10-13T12:55:33.271Z,100238.83
2022-10-13T12:56:33.060Z,100239.36
2022-10-13T12:57:37.608Z,100237.62
2022-10-13T12:58:34.821Z,100238.26
2022-10-13T12:59:33.811Z,100240
2022-10-13T13:00:33.964Z,100236.77
2022-10-13T13:01:34.400Z,100242.11
2022-10-13T13:02:34.110Z,100235.05
2022-10-13T13:03:35.490Z,100238.62
2022-10-13T13:05:36.706Z,100236.5
2022-10-13T13:06:36.697Z,100234.95
2022-10-13T13:07:36.188Z,100239.86
2022-10-13T13:08:34.956Z,100236.2
2022-10-13T13:09:35.911Z,100240.08
2022-10-13T13:10:34.990Z,100238.88
2022-10-13T13:11:38.877Z,100235.11
2022-10-13T13:12:36.053Z,100234.09
2022-10-13T13:13:35.124Z,100235.39
2022-10-13T13:14:37.102Z,100233.66
2022-10-13T13:15:36.223Z,100232.72
2022-10-13T13:16:35.135Z,100230.18
2022-10-13T13:18:40.373Z,100230.34
2022-10-13T13:19:36.625Z,100231.62
2022-10-13T13:20:36.623Z,100233.62
2022-10-13T13:21:36.598Z,100233.23
2022-10-13T13:23:36.679Z,100225.73
2022-10-13T13:24:40.282Z,100222.51
2022-10-13T13:25:37.058Z,100220.65
2022-10-13T13:26:37.050Z,100225.76
2022-10-13T13:27:39.287Z,100225.03
2022-10-13T13:29:37.111Z,100223.53
2022-10-13T13:30:37.150Z,100222.73
2022-10-13T13:31:37.175Z,100222.43
2022-10-13T13:32:37.180Z,100221.11
2022-10-13T13:33:37.262Z,100226.7
2022-10-13T13:34:37.219Z,100224.59
2022-10-13T13:35:37.628Z,100222.92